Heroic Leader — C6ZD2 — position and weather

sailwx.info

Track history (hours):
 
Tides and Currents Weather Stations Pressure Air Temp Water Temp Dewpoint Dewpoint Depression Visibility Wind Speed Wind Dir Waves Ship Positions

Heroic Leader

Last reported at 2015-May-21 10:31 UTC. Time now 2015-May-22 19:13 UTC.
Position N 01°17' E 103°60'.

Length 200 m; draft 7.8 m.

Type: Cargo ship. MMSI: 311052700.

Date/timePositionNaut miles runAvg speedWind from/ knotsBaromVisibWave heightAir tempDewpointWater temp
2015-May-21 10:31N 01°17' E 103°60'2 1.9
2015-May-21 09:27N 01°17' E 103°58'0 0.0
2015-May-21 08:12N 01°17' E 103°58'0 0.0
2015-May-21 07:24N 01°17' E 103°58'0 0.0
2015-May-21 06:30N 01°17' E 103°58'0 0.0
2015-May-21 05:30N 01°17' E 103°58'0 0.0
2015-May-21 04:12N 01°17' E 103°58'0 0.1
2015-May-21 03:24N 01°17' E 103°58'0 0.0
2015-May-21 02:03N 01°17' E 103°58'0 0.0
2015-May-21 01:21N 01°17' E 103°58'0 0.1
2015-May-21 00:27N 01°17' E 103°58'0 0.0
2015-May-20 23:30N 01°17' E 103°58'0 0.0
2015-May-20 22:18N 01°17' E 103°58'0 0.1
2015-May-20 21:24N 01°17' E 103°58'0 0.1
2015-May-20 20:24N 01°17' E 103°58'0 0.1
2015-May-20 19:30N 01°17' E 103°58'0 0.0
2015-May-20 18:33N 01°17' E 103°58'5 4.5
2015-May-20 17:34N 01°14' E 103°55'10 9.6
2015-May-20 16:30N 01°16' E 103°45'1 0.6
2015-May-20 15:10N 01°17' E 103°45'0 0.0
2015-May-20 13:19N 01°17' E 103°45'0 0.0
2015-May-20 11:25N 01°17' E 103°45'0 0.1
2015-May-20 08:33N 01°17' E 103°45'6 5.1
2015-May-20 07:24N 01°13' E 103°41'6711.4
2015-May-20 01:33N 01°42' E 102°41'1818.0
2015-May-20 00:33N 01°50' E 102°25'  
Track history (hours):
 
Tides and Currents Weather Stations Pressure Air Temp Water Temp Dewpoint Dewpoint Depression Visibility Wind Speed Wind Dir Waves Ship Positions

Heroic Leader

Last reported at 2015-May-21 10:31 UTC. Time now 2015-May-22 19:13 UTC.
Position N 01°17' E 103°60'.

Length 200 m; draft 7.8 m.

Type: Cargo ship. MMSI: 311052700.

Date/timePositionNaut miles runAvg speedWind from/ knotsBaromVisibWave heightAir tempDewpointWater temp
2015-May-21 10:31N 01°17' E 103°60'2 1.9
2015-May-21 09:27N 01°17' E 103°58'0 0.0
2015-May-21 08:12N 01°17' E 103°58'0 0.0
2015-May-21 07:24N 01°17' E 103°58'0 0.0
2015-May-21 06:30N 01°17' E 103°58'0 0.0
2015-May-21 05:30N 01°17' E 103°58'0 0.0
2015-May-21 04:12N 01°17' E 103°58'0 0.1
2015-May-21 03:24N 01°17' E 103°58'0 0.0
2015-May-21 02:03N 01°17' E 103°58'0 0.0
2015-May-21 01:21N 01°17' E 103°58'0 0.1
2015-May-21 00:27N 01°17' E 103°58'0 0.0
2015-May-20 23:30N 01°17' E 103°58'0 0.0
2015-May-20 22:18N 01°17' E 103°58'0 0.1
2015-May-20 21:24N 01°17' E 103°58'0 0.1
2015-May-20 20:24N 01°17' E 103°58'0 0.1
2015-May-20 19:30N 01°17' E 103°58'0 0.0
2015-May-20 18:33N 01°17' E 103°58'5 4.5
2015-May-20 17:34N 01°14' E 103°55'10 9.6
2015-May-20 16:30N 01°16' E 103°45'1 0.6
2015-May-20 15:10N 01°17' E 103°45'0 0.0
2015-May-20 13:19N 01°17' E 103°45'0 0.0
2015-May-20 11:25N 01°17' E 103°45'0 0.1
2015-May-20 08:33N 01°17' E 103°45'6 5.1
2015-May-20 07:24N 01°13' E 103°41'6711.4
2015-May-20 01:33N 01°42' E 102°41'1818.0
2015-May-20 00:33N 01°50' E 102°25'  

Dump ship's entire track history